createdAt,value
2022-09-30T00:01:39.997Z,99.90
2022-09-30T00:05:43.279Z,99.90
2022-09-30T00:09:48.203Z,99.90
2022-09-30T00:13:53.162Z,99.90
2022-09-30T00:17:59.674Z,99.90
2022-09-30T00:22:02.880Z,99.90
2022-09-30T00:26:09.683Z,99.90
2022-09-30T00:30:13.212Z,99.90
2022-09-30T00:34:19.640Z,99.90
2022-09-30T00:38:23.003Z,99.90
2022-09-30T00:42:30.113Z,99.90
2022-09-30T00:46:44.416Z,99.90
2022-09-30T00:50:56.674Z,99.90
2022-09-30T00:55:01.869Z,99.90
2022-09-30T00:59:09.273Z,99.90
2022-09-30T01:03:12.590Z,99.90
2022-09-30T01:07:17.362Z,99.90
2022-09-30T01:11:21.239Z,99.90
2022-09-30T01:15:33.619Z,99.90
2022-09-30T01:20:14.386Z,99.90
2022-09-30T01:24:57.591Z,99.90
2022-09-30T01:29:30.067Z,99.90
2022-09-30T01:33:43.432Z,99.90
2022-09-30T01:37:56.953Z,99.90
2022-09-30T01:42:10.982Z,99.90
2022-09-30T01:46:21.121Z,99.90
2022-09-30T01:50:31.224Z,99.90
2022-09-30T01:54:41.811Z,99.90
2022-09-30T01:58:53.617Z,99.90
2022-09-30T02:03:00.785Z,99.90
2022-09-30T02:07:09.607Z,99.90
2022-09-30T02:11:17.645Z,99.90
2022-09-30T02:15:26.287Z,99.90
2022-09-30T02:19:34.973Z,99.90
2022-09-30T02:23:43.723Z,99.90
2022-09-30T02:27:53.489Z,99.90
2022-09-30T02:32:02.227Z,99.90
2022-09-30T02:36:09.791Z,99.90
2022-09-30T02:40:19.758Z,99.90
2022-09-30T02:44:23.141Z,99.90
2022-09-30T02:48:32.671Z,99.90
2022-09-30T02:52:47.442Z,99.90
2022-09-30T02:56:56.411Z,99.90
2022-09-30T03:00:59.792Z,99.90
2022-09-30T03:05:04.352Z,99.90
2022-09-30T03:09:09.142Z,99.90
2022-09-30T03:13:30.761Z,99.90
2022-09-30T03:18:13.404Z,99.90
2022-09-30T03:22:38.124Z,99.90
2022-09-30T03:26:52.674Z,99.90
2022-09-30T03:31:09.676Z,99.90
2022-09-30T03:35:20.551Z,99.90
2022-09-30T03:39:27.924Z,99.90
2022-09-30T03:43:34.484Z,99.90
2022-09-30T03:47:45.234Z,99.90
2022-09-30T03:51:50.950Z,99.90
2022-09-30T03:55:54.541Z,99.90
2022-09-30T03:59:57.826Z,99.90
2022-09-30T04:04:03.806Z,99.90
2022-09-30T04:08:07.029Z,99.90
2022-09-30T04:12:11.542Z,99.90
2022-09-30T04:16:14.884Z,99.90
2022-09-30T04:20:19.699Z,99.90
2022-09-30T04:24:23.728Z,99.90
2022-09-30T04:28:27.594Z,99.90
2022-09-30T04:32:30.844Z,99.90
2022-09-30T04:36:39.831Z,99.90
2022-09-30T04:40:43.043Z,99.90
2022-09-30T04:44:46.461Z,99.90
2022-09-30T04:48:50.487Z,99.90
2022-09-30T04:52:56.281Z,99.90
2022-09-30T04:56:59.656Z,99.90
2022-09-30T05:01:04.089Z,99.90
2022-09-30T05:05:08.698Z,99.90
2022-09-30T05:09:13.474Z,99.90
2022-09-30T05:13:16.886Z,99.90
2022-09-30T05:17:20.080Z,99.90
2022-09-30T05:21:23.412Z,99.90
2022-09-30T05:25:28.353Z,99.90
2022-09-30T05:29:32.072Z,99.90
2022-09-30T05:33:36.270Z,99.90
2022-09-30T05:37:39.607Z,99.90
2022-09-30T05:41:44.300Z,99.90
2022-09-30T05:45:54.140Z,99.90
2022-09-30T05:49:57.545Z,99.90
2022-09-30T05:54:00.862Z,99.90
2022-09-30T05:58:05.576Z,99.90
2022-09-30T06:02:10.473Z,99.90
2022-09-30T06:06:14.090Z,99.90
2022-09-30T06:10:17.686Z,99.90
2022-09-30T06:14:22.956Z,99.90
2022-09-30T06:18:27.738Z,99.90
2022-09-30T06:22:30.944Z,99.90
2022-09-30T06:26:34.349Z,99.90
2022-09-30T06:30:39.052Z,99.90
2022-09-30T06:34:42.488Z,99.90
2022-09-30T06:38:45.714Z,99.90
2022-09-30T06:42:49.374Z,99.90
2022-09-30T06:46:54.937Z,99.90
2022-09-30T06:51:02.198Z,99.90
2022-09-30T06:55:06.419Z,99.90
2022-09-30T06:59:09.979Z,99.90
2022-09-30T07:03:29.509Z,99.90
2022-09-30T07:07:35.988Z,99.90
2022-09-30T07:11:40.089Z,99.90
2022-09-30T07:15:43.609Z,99.90
2022-09-30T07:19:52.170Z,99.90
2022-09-30T07:23:56.828Z,99.90
2022-09-30T07:28:01.385Z,99.90
2022-09-30T07:32:05.087Z,99.90
2022-09-30T07:36:10.809Z,99.90
2022-09-30T07:40:16.375Z,99.90
2022-09-30T07:44:20.176Z,99.90
2022-09-30T07:48:46.857Z,99.90
2022-09-30T07:52:51.716Z,99.90
2022-09-30T07:57:09.716Z,99.90
2022-09-30T08:01:14.211Z,99.90
2022-09-30T08:05:17.883Z,99.90
2022-09-30T08:09:25.355Z,99.90
2022-09-30T08:13:28.736Z,99.90
2022-09-30T08:17:32.139Z,99.90
2022-09-30T08:21:36.397Z,99.90
2022-09-30T08:25:41.559Z,99.90
2022-09-30T08:30:08.575Z,99.90
2022-09-30T08:34:08.772Z,99.90
2022-09-30T08:38:12.000Z,99.90
2022-09-30T08:42:50.580Z,99.90
2022-09-30T08:47:01.620Z,99.90
2022-09-30T08:51:16.785Z,99.90
2022-09-30T08:55:24.686Z,99.90
2022-09-30T08:59:36.252Z,99.90
2022-09-30T09:03:40.688Z,99.90
2022-09-30T09:07:53.372Z,99.90
2022-09-30T09:12:12.094Z,99.90
2022-09-30T09:16:26.508Z,99.90
2022-09-30T09:20:34.810Z,99.90
2022-09-30T09:24:43.392Z,99.90
2022-09-30T09:28:58.845Z,99.90
2022-09-30T09:33:21.435Z,99.90
2022-09-30T09:37:44.721Z,99.90
2022-09-30T09:42:00.564Z,99.90
2022-09-30T09:46:14.657Z,99.90
2022-09-30T09:50:22.939Z,99.90
2022-09-30T09:54:31.269Z,99.10
2022-09-30T09:58:34.870Z,95.90
2022-09-30T10:02:39.969Z,94.90
2022-09-30T10:06:52.998Z,96.90
2022-09-30T10:10:59.154Z,99.20
2022-09-30T10:15:23.862Z,99.90
2022-09-30T10:19:29.730Z,99.90
2022-09-30T10:23:37.792Z,99.90
2022-09-30T10:27:54.991Z,99.90
2022-09-30T10:32:00.018Z,99.90
2022-09-30T10:36:12.896Z,99.90
2022-09-30T10:40:22.706Z,99.90
2022-09-30T10:44:26.152Z,99.90
2022-09-30T10:48:32.754Z,99.90
2022-09-30T10:52:40.128Z,99.90
2022-09-30T10:56:47.049Z,99.90
2022-09-30T11:00:55.193Z,99.90
2022-09-30T11:05:05.014Z,97.50
2022-09-30T11:09:14.181Z,92.00
2022-09-30T11:13:25.082Z,87.30
2022-09-30T11:17:35.124Z,94.30
2022-09-30T11:21:43.653Z,94.10
2022-09-30T11:25:54.714Z,97.00
2022-09-30T11:30:10.378Z,98.90
2022-09-30T11:34:32.754Z,99.10
2022-09-30T11:38:49.051Z,98.00
2022-09-30T11:43:06.278Z,96.40
2022-09-30T11:47:46.754Z,95.80
2022-09-30T11:51:59.373Z,96.30
2022-09-30T11:56:14.084Z,96.10
2022-09-30T12:00:18.727Z,95.80
2022-09-30T12:04:31.728Z,95.40
2022-09-30T12:08:38.851Z,91.60
2022-09-30T12:12:43.014Z,87.80
2022-09-30T12:16:49.134Z,86.70
2022-09-30T12:20:57.837Z,91.50
2022-09-30T12:25:03.143Z,92.60
2022-09-30T12:29:33.321Z,92.60
2022-09-30T12:33:56.908Z,90.20
2022-09-30T12:38:26.027Z,83.90
2022-09-30T12:43:06.584Z,84.90
2022-09-30T12:47:23.351Z,86.00
2022-09-30T12:51:31.664Z,89.40
2022-09-30T12:55:42.820Z,87.90
2022-09-30T12:59:52.877Z,90.00
2022-09-30T13:04:19.490Z,92.50
2022-09-30T13:08:48.528Z,93.50
2022-09-30T13:13:18.257Z,94.00
2022-09-30T13:17:28.587Z,97.10
2022-09-30T13:21:32.378Z,98.00
2022-09-30T13:25:55.410Z,99.70
2022-09-30T13:30:01.774Z,99.90
2022-09-30T13:34:12.203Z,99.10
2022-09-30T13:38:20.444Z,99.90
2022-09-30T13:42:29.653Z,99.90
2022-09-30T13:46:40.060Z,99.90
2022-09-30T13:50:48.551Z,99.90
2022-09-30T13:54:55.138Z,99.90
2022-09-30T13:59:21.698Z,99.90
2022-09-30T14:03:44.884Z,99.90
2022-09-30T14:08:08.295Z,99.90
2022-09-30T14:12:26.577Z,99.90
2022-09-30T14:17:12.458Z,99.90
2022-09-30T14:21:34.261Z,99.90
2022-09-30T14:25:51.279Z,99.90
2022-09-30T14:30:06.667Z,99.90
2022-09-30T14:34:12.848Z,99.90
2022-09-30T14:38:22.304Z,99.90
2022-09-30T14:42:35.033Z,99.90
2022-09-30T14:46:42.014Z,99.90
2022-09-30T14:50:49.337Z,99.90
2022-09-30T14:54:55.190Z,99.90
2022-09-30T14:58:59.463Z,99.90
2022-09-30T15:03:02.904Z,99.90
2022-09-30T15:07:11.052Z,99.90
2022-09-30T15:11:26.010Z,99.90
2022-09-30T15:15:36.587Z,99.90
2022-09-30T15:19:45.418Z,99.90
2022-09-30T15:23:52.389Z,99.90
2022-09-30T15:27:57.382Z,99.90
2022-09-30T15:32:04.942Z,99.90
2022-09-30T15:36:15.985Z,99.90
2022-09-30T15:40:51.067Z,99.90
2022-09-30T15:44:56.893Z,99.90
2022-09-30T15:49:02.874Z,99.90
2022-09-30T15:53:15.587Z,99.90
2022-09-30T15:57:44.539Z,99.90
2022-09-30T16:01:51.055Z,99.90
2022-09-30T16:06:01.249Z,99.90
2022-09-30T16:10:07.056Z,99.90
2022-09-30T16:14:18.765Z,99.90
2022-09-30T16:18:28.222Z,99.90
2022-09-30T16:22:51.684Z,99.90
2022-09-30T16:26:56.759Z,99.90
2022-09-30T16:30:59.966Z,99.90
2022-09-30T16:35:05.333Z,99.90
2022-09-30T16:39:10.128Z,99.90
2022-09-30T16:43:13.498Z,99.90
2022-09-30T16:47:18.085Z,99.90
2022-09-30T16:51:22.715Z,99.90
2022-09-30T16:55:26.781Z,99.90
2022-09-30T16:59:32.707Z,99.90
2022-09-30T17:03:35.948Z,99.90
2022-09-30T17:07:41.421Z,99.90
2022-09-30T17:11:44.677Z,99.90
2022-09-30T17:15:52.753Z,99.90
2022-09-30T17:19:56.615Z,99.90
2022-09-30T17:24:01.500Z,99.90
2022-09-30T17:28:04.987Z,99.90
2022-09-30T17:32:08.935Z,99.90
2022-09-30T17:36:15.091Z,99.90
2022-09-30T17:40:38.095Z,99.90
2022-09-30T17:44:50.960Z,99.90
2022-09-30T17:48:58.579Z,99.90
2022-09-30T17:53:06.008Z,99.90
2022-09-30T17:57:12.140Z,99.90
2022-09-30T18:01:16.961Z,99.90
2022-09-30T18:05:20.553Z,99.90
2022-09-30T18:09:24.824Z,99.90
2022-09-30T18:13:30.824Z,99.90
2022-09-30T18:17:34.400Z,99.90
2022-09-30T18:21:40.346Z,99.90
2022-09-30T18:25:44.284Z,99.90
2022-09-30T18:29:49.922Z,99.90
2022-09-30T18:33:58.627Z,99.90
2022-09-30T18:38:03.677Z,99.90
2022-09-30T18:42:07.107Z,99.90
2022-09-30T18:46:13.936Z,99.90
2022-09-30T18:50:17.986Z,99.90
2022-09-30T18:54:22.083Z,99.90
2022-09-30T18:58:26.411Z,99.90
2022-09-30T19:02:35.703Z,99.90
2022-09-30T19:06:45.732Z,99.90
2022-09-30T19:10:51.496Z,99.90
2022-09-30T19:14:57.432Z,99.90
2022-09-30T19:19:08.275Z,99.90
2022-09-30T19:23:11.954Z,99.90
2022-09-30T19:27:22.054Z,99.90
2022-09-30T19:31:28.177Z,99.90
2022-09-30T19:35:40.972Z,99.90
2022-09-30T19:39:48.347Z,99.90
2022-09-30T19:43:53.430Z,99.90
2022-09-30T19:47:58.879Z,99.90
2022-09-30T19:52:15.015Z,99.90
2022-09-30T19:56:24.099Z,99.90
2022-09-30T20:00:33.085Z,99.90
2022-09-30T20:04:38.096Z,99.90
2022-09-30T20:08:45.720Z,99.90
2022-09-30T20:12:56.646Z,99.90
2022-09-30T20:17:00.179Z,99.90
2022-09-30T20:21:08.611Z,99.90
2022-09-30T20:25:14.073Z,99.90
2022-09-30T20:29:21.036Z,99.90
2022-09-30T20:33:27.101Z,99.90
2022-09-30T20:37:30.930Z,99.90
2022-09-30T20:41:38.069Z,99.90
2022-09-30T20:45:42.649Z,99.90
2022-09-30T20:49:46.390Z,99.90
2022-09-30T20:53:52.381Z,99.90
2022-09-30T20:57:57.076Z,99.90
2022-09-30T21:02:00.818Z,99.90
2022-09-30T21:06:04.841Z,99.90
2022-09-30T21:10:08.718Z,99.90
2022-09-30T21:14:13.415Z,99.90
2022-09-30T21:18:17.577Z,99.90
2022-09-30T21:22:20.945Z,99.90
2022-09-30T21:26:25.816Z,99.90
2022-09-30T21:30:30.944Z,99.90
2022-09-30T21:34:35.938Z,99.90
2022-09-30T21:38:39.290Z,99.90
2022-09-30T21:42:42.775Z,99.90
2022-09-30T21:46:50.294Z,99.90
2022-09-30T21:50:53.762Z,99.90
2022-09-30T21:54:57.353Z,99.90
2022-09-30T21:59:00.998Z,99.90
2022-09-30T22:03:05.965Z,99.90
2022-09-30T22:07:09.403Z,99.90
2022-09-30T22:11:15.912Z,99.90
2022-09-30T22:15:19.323Z,99.90
2022-09-30T22:19:24.303Z,99.90
2022-09-30T22:23:27.600Z,99.90
2022-09-30T22:27:32.917Z,99.90
2022-09-30T22:31:36.531Z,99.90
2022-09-30T22:35:59.718Z,99.90
2022-09-30T22:40:03.391Z,99.90
2022-09-30T22:44:07.693Z,99.90
2022-09-30T22:48:11.201Z,99.90
2022-09-30T22:52:16.254Z,99.90
2022-09-30T22:56:21.743Z,99.90
2022-09-30T23:00:25.701Z,99.90
2022-09-30T23:04:29.311Z,99.90
2022-09-30T23:08:41.530Z,99.90
2022-09-30T23:12:44.928Z,99.90
2022-09-30T23:16:48.904Z,99.90
2022-09-30T23:20:56.554Z,99.90
2022-09-30T23:25:02.621Z,99.90
2022-09-30T23:29:07.795Z,99.90
2022-09-30T23:33:12.089Z,99.90
2022-09-30T23:37:16.135Z,99.90
2022-09-30T23:41:20.959Z,99.90
2022-09-30T23:45:24.525Z,99.90
2022-09-30T23:49:28.096Z,99.90
2022-09-30T23:53:32.275Z,99.90
2022-09-30T23:57:37.141Z,99.90
